Time;durP1;ratioP1;P1;durP2;ratioP2;P2;SDS_P1;SDS_P2;PMS_P1;PMS_P2;Temp;Humidity;BMP_temperature;BMP_pressure;BME280_temperature;BME280_humidity;BME280_pressure;Samples;Min_cycle;Max_cycle;Signal;HPM_P1;HPM_P2
2022/03/20 00:01:38;;;;;;;10.15;6.72;;;;;;;3.53;100.00;102121.53;5008142;28;20033;-60
2022/03/20 00:04:03;;;;;;;9.00;6.53;;;;;;;3.51;100.00;102120.66;5007716;28;20877;-60
2022/03/20 00:06:29;;;;;;;10.50;6.50;;;;;;;3.42;100.00;102102.38;5007406;28;20059;-60
2022/03/20 00:08:55;;;;;;;11.15;6.97;;;;;;;3.45;100.00;102113.66;5007597;28;20043;-60
2022/03/20 00:11:21;;;;;;;8.77;6.45;;;;;;;3.45;100.00;102112.78;5007665;28;20083;-60
2022/03/20 00:13:46;;;;;;;8.85;6.25;;;;;;;3.45;100.00;102113.66;5007549;28;20898;-60
2022/03/20 00:16:12;;;;;;;15.85;7.75;;;;;;;3.40;100.00;102101.53;5007315;28;20823;-60
2022/03/20 00:18:37;;;;;;;12.73;7.82;;;;;;;3.38;100.00;102096.28;5007384;28;20025;-60
2022/03/20 00:21:02;;;;;;;9.48;7.35;;;;;;;3.38;100.00;102096.28;5009108;28;20060;-59
2022/03/20 00:23:28;;;;;;;12.55;8.40;;;;;;;3.05;100.00;102039.81;5007944;28;20132;-60
2022/03/20 00:25:55;;;;;;;14.88;8.85;;;;;;;3.35;100.00;102092.81;5007192;28;20947;-60
2022/03/20 00:28:23;;;;;;;13.05;8.02;;;;;;;3.31;100.00;102083.28;5009148;28;20106;-59
2022/03/20 00:30:49;;;;;;;12.40;9.38;;;;;;;3.30;100.00;102071.16;5007660;28;20037;-60
2022/03/20 00:33:15;;;;;;;14.07;8.82;;;;;;;3.33;100.00;102072.03;5007437;28;20057;-59
2022/03/20 00:35:40;;;;;;;12.55;9.85;;;;;;;3.30;100.00;102077.22;5007058;28;20025;-59
2022/03/20 00:38:06;;;;;;;16.63;9.73;;;;;;;3.26;100.00;102064.19;5007400;28;20021;-59
2022/03/20 00:40:32;;;;;;;14.40;10.05;;;;;;;3.21;100.00;102066.75;5007654;28;20067;-59
2022/03/20 00:42:57;;;;;;;13.70;9.85;;;;;;;3.20;100.00;102053.75;5009118;28;20032;-59
2022/03/20 00:45:23;;;;;;;22.95;10.55;;;;;;;3.18;100.00;102063.28;5006784;28;20025;-59
2022/03/20 00:47:48;;;;;;;17.10;10.48;;;;;;;3.16;100.00;102062.38;5006702;28;20826;-59
2022/03/20 00:50:14;;;;;;;14.85;9.75;;;;;;;3.04;100.00;102027.69;5008564;28;20032;-60
2022/03/20 00:52:39;;;;;;;12.73;9.90;;;;;;;3.11;100.00;102048.53;5008750;28;20025;-60
2022/03/20 00:55:05;;;;;;;16.80;10.38;;;;;;;3.03;100.00;102036.34;5007154;28;20894;-60
2022/03/20 00:57:30;;;;;;;15.88;10.52;;;;;;;3.04;100.00;102027.69;5006630;28;20021;-60
2022/03/20 00:59:56;;;;;;;15.43;10.35;;;;;;;3.09;100.00;102025.13;5008479;28;20025;-60
2022/03/20 01:02:21;;;;;;;12.50;9.50;;;;;;;3.06;100.00;102015.59;5006902;28;20104;-60
2022/03/20 01:04:47;;;;;;;18.15;10.82;;;;;;;2.73;100.00;101973.84;5007461;28;20032;-60
2022/03/20 01:07:13;;;;;;;18.25;11.40;;;;;;;2.46;100.00;101942.50;5006689;28;20069;-60
2022/03/20 01:09:38;;;;;;;17.58;11.00;;;;;;;2.91;100.00;102018.06;5006967;28;20132;-60
2022/03/20 01:12:05;;;;;;;16.50;11.32;;;;;;;2.89;100.00;102014.59;5006584;28;20068;-60
2022/03/20 01:14:30;;;;;;;18.33;10.95;;;;;;;2.75;100.00;101990.28;5006576;28;20031;-60
2022/03/20 01:16:56;;;;;;;17.98;12.38;;;;;;;2.84;100.00;102002.47;5007148;28;20918;-60
2022/03/20 01:19:25;;;;;;;14.93;11.30;;;;;;;2.80;100.00;101996.38;5006169;28;20032;-60
2022/03/20 01:21:51;;;;;;;20.67;12.02;;;;;;;2.77;100.00;101996.34;5008062;28;20033;-60
2022/03/20 01:24:17;;;;;;;21.30;12.25;;;;;;;2.67;100.00;101989.34;5006426;28;20087;-60
2022/03/20 01:26:42;;;;;;;13.32;10.82;;;;;;;2.70;100.00;101983.34;5006785;28;20884;-60
2022/03/20 01:29:07;;;;;;;17.73;12.70;;;;;;;2.66;100.00;101976.38;5005574;28;20942;-60
2022/03/20 01:31:34;;;;;;;18.52;12.60;;;;;;;2.51;100.00;101966.75;5007768;28;20028;-60
2022/03/20 01:34:00;;;;;;;15.35;11.23;;;;;;;2.22;100.00;101921.56;5007267;28;20024;-59
2022/03/20 01:36:28;;;;;;;20.08;12.48;;;;;;;2.50;100.00;101971.06;5007241;28;20029;-60
2022/03/20 01:38:54;;;;;;;20.17;12.30;;;;;;;2.44;100.00;101960.63;5007628;28;20032;-60
2022/03/20 01:41:20;;;;;;;17.50;11.93;;;;;;;2.32;100.00;101951.88;5007620;28;20029;-59
2022/03/20 01:43:58;;;;;;;17.13;12.27;;;;;;;2.31;100.00;101957.94;5005846;28;20059;-59
2022/03/20 01:46:23;;;;;;;21.58;14.20;;;;;;;2.38;100.00;101949.34;5007489;28;20025;-60
2022/03/20 01:48:52;;;;;;;18.77;12.68;;;;;;;2.45;100.00;101945.94;5006266;28;20064;-59
2022/03/20 01:51:18;;;;;;;19.70;13.43;;;;;;;2.45;100.00;101943.34;5005804;28;20040;-60
2022/03/20 01:53:43;;;;;;;22.45;12.95;;;;;;;2.45;100.00;101930.38;5006083;28;20901;-60
2022/03/20 01:56:10;;;;;;;18.17;13.23;;;;;;;2.48;100.00;101925.22;5005821;28;20025;-60
2022/03/20 01:58:35;;;;;;;20.33;14.23;;;;;;;2.38;100.00;101907.84;5006975;28;20145;-60
2022/03/20 02:01:02;;;;;;;20.05;13.68;;;;;;;2.47;100.00;101928.66;5003970;28;21017;-60
2022/03/20 02:03:28;;;;;;;21.10;14.07;;;;;;;2.31;100.00;101900.88;5005492;28;20029;-60
2022/03/20 02:05:54;;;;;;;21.55;14.02;;;;;;;2.42;100.00;101915.69;5005425;28;20191;-60
2022/03/20 02:08:25;;;;;;;19.08;13.60;;;;;;;2.38;100.00;101918.22;5004924;28;20036;-60
2022/03/20 02:10:52;;;;;;;22.88;14.27;;;;;;;2.46;100.00;101911.38;5005575;28;20091;-60
2022/03/20 02:13:23;;;;;;;21.20;14.52;;;;;;;2.51;100.00;101909.66;5004333;28;20911;-60
2022/03/20 02:15:49;;;;;;;21.83;14.02;;;;;;;2.56;100.00;101897.63;5007126;28;20033;-60
2022/03/20 02:18:15;;;;;;;22.17;13.82;;;;;;;2.28;100.00;101844.69;5004494;28;20033;-60
2022/03/20 02:20:45;;;;;;;23.83;14.23;;;;;;;2.68;100.00;101899.41;5005201;28;20281;-59
2022/03/20 02:23:11;;;;;;;20.73;14.23;;;;;;;2.32;100.00;101828.28;5006182;28;20052;-60
2022/03/20 02:25:38;;;;;;;17.73;14.07;;;;;;;2.70;100.00;101875.22;5007120;28;21002;-60
2022/03/20 02:28:04;;;;;;;22.92;15.20;;;;;;;2.75;100.00;101860.53;5005161;28;20033;-60
2022/03/20 02:30:30;;;;;;;23.80;15.45;;;;;;;2.82;100.00;101859.69;5005385;28;20040;-60
2022/03/20 02:32:56;;;;;;;21.58;14.40;;;;;;;2.79;100.00;101843.25;5005615;28;20029;-60
2022/03/20 02:35:22;;;;;;;24.73;15.05;;;;;;;2.88;100.00;101861.44;5005354;28;20918;-60
2022/03/20 02:37:53;;;;;;;19.25;15.07;;;;;;;2.90;100.00;101854.56;5005673;28;20025;-60
2022/03/20 02:40:20;;;;;;;25.10;15.32;;;;;;;2.90;100.00;101836.38;5014905;28;20040;-60
2022/03/20 02:42:50;;;;;;;26.48;16.02;;;;;;;2.88;100.00;101818.19;5027298;28;20109;-60
2022/03/20 02:45:27;;;;;;;21.13;14.68;;;;;;;2.94;100.00;101827.75;5026926;28;20037;-59
2022/03/20 02:47:52;;;;;;;22.98;15.95;;;;;;;2.94;100.00;101832.94;5025520;28;20059;-60
2022/03/20 02:50:22;;;;;;;21.27;14.93;;;;;;;2.93;100.00;101826.88;5026473;28;20895;-60
2022/03/20 02:52:52;;;;;;;19.65;15.10;;;;;;;2.65;100.00;101786.09;5025745;28;20090;-60
2022/03/20 02:55:32;;;;;;;22.40;14.95;;;;;;;2.88;100.00;101819.91;5026667;28;20033;-60
2022/03/20 02:58:01;;;;;;;23.40;15.73;;;;;;;2.96;100.00;101824.28;5024529;28;20039;-60
2022/03/20 03:00:28;;;;;;;22.23;15.40;;;;;;;3.02;100.00;101815.66;5025398;28;20484;-60
2022/03/20 03:02:56;;;;;;;33.00;15.90;;;;;;;3.15;100.00;101817.41;5024945;28;20025;-60
2022/03/20 03:05:23;;;;;;;24.48;14.93;;;;;;;3.20;100.00;101802.72;5024623;28;20028;-60
2022/03/20 03:13:22;;;;;;;23.58;15.65;;;;;;;3.38;100.00;101799.31;5025517;28;20047;-60
2022/03/20 03:15:47;;;;;;;32.08;17.98;;;;;;;3.33;100.00;101782.84;5030511;28;20028;-59
2022/03/20 03:18:13;;;;;;;24.85;15.75;;;;;;;3.34;100.00;101788.06;5027375;28;20028;-60
2022/03/20 03:20:38;;;;;;;33.08;16.42;;;;;;;3.35;100.00;101762.91;5026735;28;20040;-60
2022/03/20 03:23:04;;;;;;;25.45;15.90;;;;;;;3.49;100.00;101782.84;5026408;28;20845;-60
2022/03/20 03:25:31;;;;;;;23.95;16.15;;;;;;;3.59;100.00;101799.31;5026722;28;20789;-60
2022/03/20 03:27:57;;;;;;;25.90;16.73;;;;;;;3.57;100.00;101780.28;5024755;28;20029;-60
2022/03/20 03:30:22;;;;;;;18.92;15.55;;;;;;;3.47;100.00;101763.81;5024237;28;20754;-60
2022/03/20 03:32:48;;;;;;;24.83;17.15;;;;;;;3.65;100.00;101794.13;5024617;28;20028;-60
2022/03/20 03:37:59;;;;;;;24.45;16.77;;;;;;;3.38;100.00;101783.72;5024154;28;20169;-60
2022/03/20 03:40:25;;;;;;;21.90;15.65;;;;;;;3.21;100.00;101782.84;5025034;28;20222;-60
2022/03/20 03:42:50;;;;;;;25.23;16.38;;;;;;;3.11;100.00;101781.06;5024930;28;20021;-60
2022/03/20 03:45:16;;;;;;;27.27;15.95;;;;;;;3.00;100.00;101781.91;5025153;28;20083;-59
2022/03/20 03:47:42;;;;;;;28.48;17.20;;;;;;;2.89;100.00;101781.00;5025544;28;20024;-60
2022/03/20 03:50:08;;;;;;;27.00;16.77;;;;;;;2.86;100.00;101785.31;5024182;28;20898;-60
2022/03/20 03:52:33;;;;;;;22.73;16.63;;;;;;;2.67;100.00;101766.19;5027497;28;20128;-60
2022/03/20 03:54:59;;;;;;;27.20;17.30;;;;;;;2.73;100.00;101774.03;5029245;28;20031;-59
2022/03/20 03:57:24;;;;;;;26.15;17.15;;;;;;;2.75;100.00;101780.09;5027673;28;20131;-60
2022/03/20 03:59:50;;;;;;;24.30;16.80;;;;;;;2.66;100.00;101755.84;5029322;28;20029;-60
2022/03/20 04:02:15;;;;;;;22.35;16.85;;;;;;;2.90;100.00;101774.09;5027571;28;20036;-60
2022/03/20 04:04:41;;;;;;;22.08;16.50;;;;;;;2.76;100.00;101755.88;5029071;28;20194;-60
2022/03/20 04:07:07;;;;;;;26.02;16.83;;;;;;;2.81;100.00;101764.53;5027446;28;20024;-60
2022/03/20 04:09:33;;;;;;;22.00;16.25;;;;;;;2.77;100.00;101761.94;5043190;28;20055;-60
2022/03/20 04:11:58;;;;;;;22.63;15.70;;;;;;;2.77;100.00;101762.78;5026996;28;20024;-60
2022/03/20 04:14:24;;;;;;;27.52;17.00;;;;;;;2.71;100.00;101759.28;5027509;28;20033;-60
2022/03/20 04:16:50;;;;;;;24.60;16.02;;;;;;;2.71;100.00;101760.16;5027871;28;20952;-60
2022/03/20 04:19:15;;;;;;;28.85;16.98;;;;;;;2.70;100.00;101758.47;5027676;28;20024;-60
2022/03/20 04:21:41;;;;;;;27.70;17.27;;;;;;;2.64;100.00;101745.44;5027512;28;20033;-60
2022/03/20 04:24:07;;;;;;;25.40;17.52;;;;;;;2.65;100.00;101738.53;5028084;28;20055;-60
2022/03/20 04:26:34;;;;;;;25.55;17.73;;;;;;;2.71;100.00;101742.00;5027330;28;20058;-60
2022/03/20 04:28:59;;;;;;;22.92;16.30;;;;;;;2.78;100.00;101740.28;5026855;28;20132;-60
2022/03/20 04:31:25;;;;;;;24.90;16.23;;;;;;;2.82;100.00;101740.31;5028177;28;20037;-60
2022/03/20 04:33:53;;;;;;;22.40;16.63;;;;;;;2.80;100.00;101733.41;5028902;28;20028;-60
2022/03/20 04:36:23;;;;;;;25.45;16.08;;;;;;;2.74;100.00;101726.44;5028881;28;20028;-60
2022/03/20 04:38:50;;;;;;;28.48;17.77;;;;;;;2.75;100.00;101723.00;5027995;28;20056;-60
2022/03/20 04:41:17;;;;;;;23.75;17.00;;;;;;;2.74;100.00;101725.59;5042876;28;20885;-60
2022/03/20 04:43:44;;;;;;;29.55;16.58;;;;;;;2.63;100.00;101722.97;5028591;28;20031;-59
2022/03/20 04:46:09;;;;;;;22.58;17.05;;;;;;;2.52;100.00;101706.50;5028092;28;20036;-60
2022/03/20 04:59:31;;;;;;;26.83;18.85;;;;;;;2.01;100.00;101663.06;5032879;28;20957;-60
2022/03/20 05:01:56;;;;;;;26.45;16.85;;;;;;;2.11;100.00;101687.28;5032508;28;20056;-59
2022/03/20 05:04:21;;;;;;;22.83;16.48;;;;;;;2.02;100.00;101683.81;5032116;28;20090;-60
2022/03/20 05:06:47;;;;;;;29.63;17.77;;;;;;;1.99;100.00;101672.56;5032702;28;20817;-60
2022/03/20 05:14:40;;;;;;;23.73;17.38;;;;;;;1.97;100.00;101688.09;5040692;28;20035;-60
2022/03/20 05:17:07;;;;;;;24.80;16.95;;;;;;;1.97;100.00;101680.31;5041465;28;20020;-59
2022/03/20 05:19:36;;;;;;;30.80;17.88;;;;;;;1.98;100.00;101679.47;5041719;28;20032;-60
2022/03/20 05:22:06;;;;;;;22.88;17.92;;;;;;;2.04;100.00;101684.66;5041785;28;20094;-59
2022/03/20 05:24:34;;;;;;;24.70;18.00;;;;;;;2.11;100.00;101685.56;5041603;28;20800;-59
2022/03/20 05:26:59;;;;;;;24.48;17.33;;;;;;;2.17;100.00;101674.34;5043810;28;20036;-60
2022/03/20 05:29:25;;;;;;;25.83;17.08;;;;;;;2.22;100.00;101665.75;5047289;28;20025;-60
2022/03/20 05:31:51;;;;;;;25.42;16.92;;;;;;;1.86;100.00;101599.03;5047402;28;20035;-60
2022/03/20 05:34:16;;;;;;;27.35;19.27;;;;;;;2.35;100.00;101684.81;5046468;28;20028;-60
2022/03/20 05:36:43;;;;;;;27.73;16.90;;;;;;;2.39;100.00;101676.19;5047686;28;20135;-62
2022/03/20 05:39:08;;;;;;;25.50;18.10;;;;;;;2.46;100.00;101678.81;5063938;28;20180;-60
2022/03/20 05:41:50;;;;;;;26.60;18.55;;;;;;;2.50;100.00;101666.72;5046712;28;20028;-60
2022/03/20 05:44:20;;;;;;;24.50;17.80;;;;;;;2.61;100.00;101658.94;5046921;28;20032;-60
2022/03/20 05:46:47;;;;;;;24.23;17.80;;;;;;;2.11;100.00;101586.19;5047955;28;20055;-60
2022/03/20 05:49:12;;;;;;;23.65;17.38;;;;;;;2.61;100.00;101662.41;5047552;28;20116;-59
2022/03/20 05:51:38;;;;;;;25.33;16.20;;;;;;;2.39;100.00;101614.81;5045061;28;20842;-60
2022/03/20 05:54:04;;;;;;;27.50;18.58;;;;;;;2.70;100.00;101662.44;5043018;28;20046;-60
2022/03/20 05:59:14;;;;;;;30.38;17.48;;;;;;;2.76;100.00;101667.66;5047470;28;20067;-60
2022/03/20 06:01:39;;;;;;;28.48;17.80;;;;;;;2.73;100.00;101652.06;5047357;28;20028;-60
2022/03/20 06:04:06;;;;;;;24.45;16.10;;;;;;;2.45;100.00;101595.81;5047926;28;21004;-60
2022/03/20 06:06:37;;;;;;;22.40;16.77;;;;;;;2.82;100.00;101657.28;5048904;28;20082;-60
2022/03/20 06:09:03;;;;;;;28.48;17.83;;;;;;;2.87;100.00;101660.72;5047107;28;20032;-60
2022/03/20 06:11:29;;;;;;;27.75;17.80;;;;;;;2.88;100.00;101656.41;5048208;28;20024;-60
2022/03/20 06:13:55;;;;;;;29.00;17.40;;;;;;;2.71;100.00;101622.66;5048094;28;20027;-60
2022/03/20 06:16:23;;;;;;;26.95;17.05;;;;;;;2.91;100.00;101641.69;5047593;28;20045;-60
2022/03/20 06:18:49;;;;;;;23.80;17.40;;;;;;;2.93;100.00;101655.56;5048537;28;20031;-60
2022/03/20 06:21:15;;;;;;;25.88;17.75;;;;;;;2.87;100.00;101634.78;5047793;28;20037;-60
2022/03/20 06:23:40;;;;;;;25.20;18.48;;;;;;;2.94;100.00;101641.69;5045461;28;20036;-59
2022/03/20 06:26:07;;;;;;;26.35;18.27;;;;;;;3.00;100.00;101636.53;5045917;28;20903;-59
2022/03/20 06:28:40;;;;;;;21.35;16.17;;;;;;;3.04;100.00;101632.22;5044603;28;20048;-60
2022/03/20 06:31:06;;;;;;;23.13;17.65;;;;;;;2.89;100.00;101601.91;5042852;28;20053;-60
2022/03/20 06:33:31;;;;;;;22.95;16.08;;;;;;;2.93;100.00;101595.00;5039288;28;20557;-60
2022/03/20 06:35:56;;;;;;;24.15;17.77;;;;;;;2.88;100.00;101594.97;5037721;28;20103;-60
2022/03/20 06:38:22;;;;;;;23.15;17.13;;;;;;;3.09;100.00;101633.06;5038601;28;20857;-60
2022/03/20 06:40:47;;;;;;;23.42;17.05;;;;;;;3.16;100.00;101644.31;5038049;28;20025;-60
2022/03/20 06:43:14;;;;;;;25.83;16.20;;;;;;;3.12;100.00;101625.28;5037019;28;20031;-60
2022/03/20 06:45:41;;;;;;;26.30;16.52;;;;;;;2.96;100.00;101603.66;5034403;28;20032;-60
2022/03/20 06:48:07;;;;;;;29.13;17.42;;;;;;;3.25;100.00;101641.72;5031406;28;20853;-60
2022/03/20 06:50:33;;;;;;;27.35;16.90;;;;;;;3.12;100.00;101608.81;5029849;28;20039;-61
2022/03/20 06:53:02;;;;;;;25.65;17.17;;;;;;;3.26;100.00;101622.66;5029165;28;20118;-60
2022/03/20 06:55:30;;;;;;;23.63;17.50;;;;;;;3.29;100.00;101628.72;5027874;28;20884;-60
2022/03/20 06:57:55;;;;;;;26.83;16.45;;;;;;;3.32;100.00;101628.72;5026698;28;20021;-60
2022/03/20 07:00:22;;;;;;;26.55;16.40;;;;;;;3.36;100.00;101629.59;5027030;28;20257;-60
2022/03/20 07:02:47;;;;;;;23.23;17.15;;;;;;;3.32;100.00;101618.34;5026865;28;20094;-60
2022/03/20 07:05:13;;;;;;;28.20;18.10;;;;;;;3.20;100.00;101586.31;5025157;28;20424;-60
2022/03/20 07:07:40;;;;;;;21.52;16.23;;;;;;;3.50;100.00;101627.84;5025860;28;20871;-60
2022/03/20 07:10:07;;;;;;;22.90;16.35;;;;;;;3.51;100.00;101627.84;5026364;28;20186;-60
2022/03/20 07:12:33;;;;;;;24.65;16.52;;;;;;;3.51;100.00;101624.38;5025768;28;20029;-60
2022/03/20 07:14:58;;;;;;;21.45;16.63;;;;;;;3.54;100.00;101621.78;5026023;28;20036;-59
2022/03/20 07:17:24;;;;;;;21.25;16.38;;;;;;;3.60;100.00;101624.38;5025495;28;20900;-59
2022/03/20 07:19:50;;;;;;;28.23;16.75;;;;;;;3.62;100.00;101630.41;5023742;28;20242;-60
2022/03/20 07:22:16;;;;;;;25.65;17.00;;;;;;;3.64;100.00;101607.03;5024867;28;20854;-59
2022/03/20 07:24:43;;;;;;;27.83;17.90;;;;;;;3.66;100.00;101608.75;5024856;28;20036;-62
2022/03/20 07:29:54;;;;;;;26.73;16.48;;;;;;;3.82;100.00;101609.59;5030245;28;20985;-60
2022/03/20 07:32:19;;;;;;;22.50;16.58;;;;;;;3.87;100.00;101608.69;5029401;28;20032;-60
2022/03/20 07:34:45;;;;;;;25.00;16.83;;;;;;;3.90;100.00;101613.00;5030646;28;20060;-59
2022/03/20 07:37:15;;;;;;;27.35;18.30;;;;;;;3.88;100.00;101605.25;5028195;28;20025;-63
2022/03/20 07:39:41;;;;;;;22.70;16.25;;;;;;;3.85;100.00;101604.38;5029535;28;20813;-60
2022/03/20 07:42:08;;;;;;;27.63;16.58;;;;;;;3.83;100.00;101596.56;5028895;28;20070;-59
2022/03/20 07:44:34;;;;;;;27.05;16.13;;;;;;;3.85;100.00;101591.38;5028840;28;20071;-59
2022/03/20 07:46:59;;;;;;;26.73;17.23;;;;;;;3.57;100.00;101541.22;5028296;28;20229;-59
2022/03/20 07:49:26;;;;;;;22.83;16.52;;;;;;;4.02;100.00;101599.97;5028089;28;20769;-59
2022/03/20 07:51:53;;;;;;;26.20;17.42;;;;;;;4.07;100.00;101599.09;5028323;28;20029;-60
2022/03/20 07:54:20;;;;;;;24.95;16.98;;;;;;;4.22;100.00;101590.34;5028409;28;20024;-62
2022/03/20 07:56:45;;;;;;;23.60;16.42;;;;;;;4.38;100.00;101597.19;5028021;28;20035;-59
2022/03/20 07:59:11;;;;;;;25.02;17.30;;;;;;;4.60;100.00;101585.78;5028056;28;20206;-59
2022/03/20 08:01:37;;;;;;;21.40;16.45;;;;;;;4.49;100.00;101565.91;5028414;28;20785;-60
2022/03/20 08:04:03;;;;;;;22.48;16.75;;;;;;;4.84;100.00;101587.34;5027799;28;20036;-60
2022/03/20 08:06:29;;;;;;;26.75;17.17;;;;;;;4.76;100.00;101546.63;5028398;28;20043;-59
2022/03/20 08:08:59;;;;;;;22.92;16.40;;;;;;;5.30;100.00;101589.56;5028018;28;20046;-59
2022/03/20 08:11:29;;;;;;;20.63;15.10;;;;;;;5.51;100.00;101587.59;5027690;28;20041;-59
2022/03/20 08:13:55;;;;;;;27.10;18.15;;;;;;;5.64;100.00;101580.53;5029980;28;20040;-60
2022/03/20 08:16:22;;;;;;;19.73;14.88;;;;;;;5.92;100.00;101579.34;5028315;28;20914;-60
2022/03/20 08:18:48;;;;;;;21.10;15.93;;;;;;;5.97;100.00;101590.59;5029299;28;20032;-60
2022/03/20 08:21:14;;;;;;;25.23;16.63;;;;;;;5.98;100.00;101589.69;5028424;28;20858;-60
2022/03/20 08:23:40;;;;;;;21.00;15.35;;;;;;;6.01;100.00;101592.28;5027906;28;20139;-60
2022/03/20 08:26:08;;;;;;;24.02;16.55;;;;;;;6.01;100.00;101588.81;5028328;28;20032;-60
2022/03/20 08:28:45;;;;;;;21.95;16.80;;;;;;;5.99;100.00;101586.19;5027546;28;20089;-60
2022/03/20 08:31:10;;;;;;;29.10;17.58;;;;;;;6.09;99.95;101579.13;5029715;28;20043;-60
2022/03/20 08:33:36;;;;;;;24.38;17.27;;;;;;;6.29;99.44;101584.94;5029407;28;20131;-60
2022/03/20 08:36:03;;;;;;;26.73;16.00;;;;;;;6.38;98.87;101578.75;5028797;28;20940;-60
2022/03/20 08:38:28;;;;;;;27.55;17.02;;;;;;;6.33;99.22;101575.31;5029307;28;20029;-60
2022/03/20 08:40:54;;;;;;;24.35;16.48;;;;;;;6.13;97.22;101542.53;5028209;28;20063;-60
2022/03/20 08:43:21;;;;;;;24.23;17.67;;;;;;;6.41;96.94;101563.03;5027270;28;20940;-61
2022/03/20 08:45:47;;;;;;;23.65;16.65;;;;;;;6.35;96.08;101542.25;5028040;28;20025;-60
2022/03/20 08:48:12;;;;;;;24.27;16.73;;;;;;;6.79;96.21;101573.78;5026192;28;20876;-60
2022/03/20 08:50:37;;;;;;;24.15;16.67;;;;;;;7.19;94.90;101569.63;5027551;28;20032;-60
2022/03/20 08:53:03;;;;;;;29.90;17.90;;;;;;;7.34;90.99;101572.81;5027616;28;20789;-60
2022/03/20 08:55:31;;;;;;;22.48;17.10;;;;;;;7.25;89.15;101560.78;5027199;28;20048;-60
2022/03/20 08:57:56;;;;;;;27.90;17.40;;;;;;;7.18;87.97;101570.50;5027468;28;20086;-60
2022/03/20 09:00:23;;;;;;;23.63;16.90;;;;;;;6.76;89.47;101534.63;5027125;28;20742;-60
2022/03/20 09:02:50;;;;;;;24.15;16.75;;;;;;;6.96;89.61;101569.13;5027806;28;20135;-60
2022/03/20 09:05:16;;;;;;;23.17;16.55;;;;;;;7.15;88.19;101567.94;5028659;28;20098;-60
2022/03/20 09:07:43;;;;;;;24.13;16.17;;;;;;;7.28;87.90;101570.31;5028333;28;20915;-60
2022/03/20 09:10:09;;;;;;;25.10;17.10;;;;;;;7.34;87.49;101564.97;5028512;28;20050;-60
2022/03/20 09:12:35;;;;;;;21.77;16.63;;;;;;;7.37;87.72;101564.94;5028952;28;20043;-60
2022/03/20 09:15:02;;;;;;;27.38;17.20;;;;;;;6.53;87.41;101459.28;5030111;28;20040;-60
2022/03/20 09:20:12;;;;;;;23.50;16.77;;;;;;;7.42;88.50;101547.41;5028695;28;20086;-60
2022/03/20 09:22:37;;;;;;;24.92;17.77;;;;;;;7.68;86.60;101545.16;5028088;28;20030;-60
2022/03/20 09:25:04;;;;;;;24.08;17.75;;;;;;;7.63;85.34;101547.00;5028859;28;20886;-60
2022/03/20 09:27:29;;;;;;;23.67;16.25;;;;;;;7.49;86.27;101549.03;5027426;28;20041;-60
2022/03/20 09:29:55;;;;;;;23.52;16.48;;;;;;;7.54;86.18;101549.78;5028404;28;20094;-60
2022/03/20 09:32:20;;;;;;;23.55;17.58;;;;;;;7.75;86.03;101540.66;5043135;28;20820;-60
2022/03/20 09:34:46;;;;;;;30.73;17.40;;;;;;;7.82;84.06;101544.88;5027367;28;20056;-59
2022/03/20 09:37:11;;;;;;;22.52;15.93;;;;;;;7.77;83.69;101544.97;5027867;28;20040;-61
2022/03/20 09:39:36;;;;;;;33.15;17.35;;;;;;;7.80;83.14;101550.16;5026929;28;20091;-61
2022/03/20 09:42:03;;;;;;;22.27;17.08;;;;;;;7.75;83.55;101533.66;5026556;28;20912;-62
2022/03/20 09:44:29;;;;;;;20.83;15.75;;;;;;;7.99;83.16;101532.28;5027117;28;20222;-60
2022/03/20 09:46:55;;;;;;;25.13;17.65;;;;;;;8.11;81.16;101535.50;5027005;28;20139;-58
2022/03/20 09:49:22;;;;;;;21.67;16.85;;;;;;;8.28;82.10;101536.91;5025679;28;20025;-58
2022/03/20 09:51:47;;;;;;;25.13;17.15;;;;;;;8.36;82.54;101533.25;5026873;28;20091;-58
2022/03/20 09:54:14;;;;;;;22.13;17.20;;;;;;;8.56;81.92;101538.00;5026979;28;20880;-59
2022/03/20 09:56:42;;;;;;;18.10;15.40;;;;;;;8.46;80.89;101464.03;5025214;28;20943;-58
2022/03/20 09:59:09;;;;;;;29.00;17.00;;;;;;;9.06;81.04;101535.00;5025471;28;20040;-58
2022/03/20 10:01:35;;;;;;;26.40;18.88;;;;;;;8.84;76.21;101465.69;5026751;28;20032;-58
2022/03/20 10:04:27;;;;;;;24.63;16.17;;;;;;;9.19;76.36;101531.16;5026575;28;20030;-56
2022/03/20 10:06:53;;;;;;;22.75;17.38;;;;;;;9.29;77.50;101526.56;5024179;28;20202;-58
2022/03/20 10:09:18;;;;;;;21.35;16.10;;;;;;;9.20;75.85;101513.66;5028140;28;20893;-59
2022/03/20 10:11:48;;;;;;;19.85;16.55;;;;;;;9.20;76.66;101527.66;5027144;28;20413;-58
2022/03/20 10:14:29;;;;;;;23.05;15.98;;;;;;;9.12;75.23;101498.16;5025213;28;20450;-56
2022/03/20 10:17:06;;;;;;;29.95;16.98;;;;;;;9.45;76.24;101533.09;5025115;28;20097;-58
2022/03/20 10:19:33;;;;;;;20.75;15.23;;;;;;;9.54;74.91;101538.09;5025863;28;20210;-58
2022/03/20 10:22:01;;;;;;;23.90;16.00;;;;;;;9.59;75.17;101540.59;5026191;28;20392;-60
2022/03/20 10:24:29;;;;;;;22.80;16.10;;;;;;;9.73;75.88;101534.03;5026120;28;20024;-60
2022/03/20 10:27:00;;;;;;;23.50;16.98;;;;;;;9.77;74.13;101549.72;5026103;28;20028;-60
2022/03/20 10:29:27;;;;;;;22.52;15.43;;;;;;;9.65;74.62;101535.16;5026241;28;20032;-65
2022/03/20 10:31:55;;;;;;;28.00;17.00;;;;;;;9.45;75.13;101520.00;5027753;28;20024;-60
2022/03/20 10:34:23;;;;;;;26.83;17.52;;;;;;;9.51;74.78;101542.56;5026372;28;20025;-59
2022/03/20 10:36:50;;;;;;;21.25;17.25;;;;;;;9.45;74.07;101543.59;5028390;28;20028;-60
2022/03/20 10:39:19;;;;;;;21.45;15.65;;;;;;;9.40;75.07;101550.72;5026697;28;20028;-59
2022/03/20 10:41:46;;;;;;;27.80;16.08;;;;;;;9.15;74.82;101529.56;5027037;28;20025;-60
2022/03/20 10:44:18;;;;;;;25.60;15.98;;;;;;;9.30;76.15;101558.88;5025899;28;20050;-59
2022/03/20 10:46:58;;;;;;;27.52;17.33;;;;;;;9.22;75.08;101557.34;5025801;28;20028;-59
2022/03/20 10:49:24;;;;;;;18.95;16.10;;;;;;;9.19;75.93;101533.78;5026020;28;20090;-59
2022/03/20 10:52:07;;;;;;;25.35;17.88;;;;;;;9.60;76.61;101563.28;5025828;28;20106;-59
2022/03/20 10:54:58;;;;;;;26.45;17.02;;;;;;;9.73;75.65;101564.69;5025412;28;20028;-59
2022/03/20 10:57:34;;;;;;;22.58;16.70;;;;;;;9.75;75.24;101560.25;5022536;28;20109;-59
2022/03/20 11:00:07;;;;;;;23.55;16.52;;;;;;;9.60;76.47;101558.91;5026491;28;20089;-59
2022/03/20 11:02:36;;;;;;;23.67;16.63;;;;;;;9.53;76.79;101556.53;5029441;28;20021;-59
2022/03/20 11:05:01;;;;;;;22.25;16.15;;;;;;;9.32;77.59;101554.47;5030248;28;20024;-59
2022/03/20 11:07:27;;;;;;;32.72;16.35;;;;;;;9.17;77.79;101563.56;5030526;28;20035;-59
2022/03/20 11:09:54;;;;;;;20.38;16.55;;;;;;;9.06;77.47;101566.47;5029789;28;20935;-58
2022/03/20 11:12:32;;;;;;;19.73;16.20;;;;;;;8.73;77.22;101567.28;5029061;28;20042;-59
2022/03/20 11:14:59;;;;;;;27.65;16.83;;;;;;;8.54;79.38;101539.81;5029179;28;20035;-59
2022/03/20 11:17:36;;;;;;;22.45;16.08;;;;;;;8.67;78.19;101559.59;5030104;28;20024;-58
2022/03/20 11:20:03;;;;;;;27.25;17.27;;;;;;;8.56;76.59;101559.84;5030045;28;20101;-59
2022/03/20 11:22:28;;;;;;;22.10;16.77;;;;;;;8.09;77.71;101500.66;5029547;28;21034;-59
2022/03/20 11:24:55;;;;;;;21.65;16.20;;;;;;;8.41;76.81;101559.34;5029507;28;20147;-58
2022/03/20 11:27:27;;;;;;;36.05;17.17;;;;;;;8.36;77.57;101561.19;5028444;28;20032;-59
2022/03/20 11:30:03;;;;;;;23.70;16.60;;;;;;;8.40;77.16;101557.59;5029436;28;20105;-58
2022/03/20 11:32:29;;;;;;;23.15;16.92;;;;;;;8.28;75.77;101563.09;5030204;28;20992;-59
2022/03/20 11:34:55;;;;;;;34.72;16.38;;;;;;;8.15;77.73;101555.50;5030285;28;20113;-59
2022/03/20 11:37:20;;;;;;;23.45;17.20;;;;;;;8.29;78.42;101557.84;5029720;28;20033;-59
2022/03/20 11:40:08;;;;;;;19.08;15.48;;;;;;;8.33;79.66;101566.50;5029751;28;20024;-59
2022/03/20 11:42:33;;;;;;;19.20;16.20;;;;;;;8.21;77.22;101552.72;5029527;28;20024;-58
2022/03/20 11:45:04;;;;;;;23.13;16.50;;;;;;;8.16;78.25;101558.97;5028962;28;20048;-58